Time;durP1;ratioP1;P1;durP2;ratioP2;P2;SDS_P1;SDS_P2;PMS_P1;PMS_P2;Temp;Humidity;BMP_temperature;BMP_pressure;BME280_temperature;BME280_humidity;BME280_pressure;Samples;Min_cycle;Max_cycle;Signal;HPM_P1;HPM_P2
2022/07/12 00:00:41;;;;;;;0.43;0.43;;;;;17.10;98972.00;;;;5113407;28;20691;-69
2022/07/12 00:03:08;;;;;;;0.57;0.57;;;;;17.20;98978.00;;;;5113506;28;20202;-70
2022/07/12 00:05:35;;;;;;;0.60;0.60;;;;;17.10;98978.00;;;;5113453;28;20633;-70
2022/07/12 00:08:03;;;;;;;0.50;0.50;;;;;17.10;98983.00;;;;5113372;28;20291;-70
2022/07/12 00:10:29;;;;;;;0.50;0.50;;;;;17.30;98978.00;;;;5113465;28;20281;-70
2022/07/12 00:12:56;;;;;;;0.70;0.70;;;;;17.20;98983.00;;;;5113402;28;20206;-70
2022/07/12 00:15:23;;;;;;;0.57;0.57;;;;;17.20;98976.00;;;;5113536;28;20331;-69
2022/07/12 00:17:50;;;;;;;0.40;0.40;;;;;17.20;98969.00;;;;5113325;28;20210;-69
2022/07/12 00:20:17;;;;;;;0.60;0.60;;;;;17.20;98975.00;;;;5113308;28;20186;-69
2022/07/12 00:22:46;;;;;;;0.57;0.57;;;;;17.10;98980.00;;;;5113197;28;20226;-69
2022/07/12 00:25:14;;;;;;;0.63;0.63;;;;;17.20;98976.00;;;;5113226;28;20190;-69
2022/07/12 00:27:41;;;;;;;0.90;0.90;;;;;17.10;98974.00;;;;5113228;28;20186;-71
2022/07/12 00:30:09;;;;;;;0.57;0.57;;;;;17.10;98977.00;;;;5113168;28;20218;-70
2022/07/12 00:32:38;;;;;;;0.87;0.87;;;;;17.00;98981.00;;;;5113149;28;20243;-70
2022/07/12 00:35:05;;;;;;;0.77;0.77;;;;;17.00;98979.00;;;;5113086;28;20194;-69
2022/07/12 00:37:32;;;;;;;0.67;0.67;;;;;16.80;98980.00;;;;5096202;28;20241;-69
2022/07/12 00:39:59;;;;;;;0.57;0.57;;;;;16.80;98980.00;;;;5116604;28;20217;-69
2022/07/12 00:42:27;;;;;;;0.70;0.70;;;;;16.70;98980.00;;;;5116588;28;20190;-69
2022/07/12 00:44:54;;;;;;;0.57;0.57;;;;;16.60;98968.00;;;;5116480;28;20218;-69
2022/07/12 00:47:32;;;;;;;0.50;0.50;;;;;16.50;98973.00;;;;5116530;28;20202;-69
2022/07/12 00:49:59;;;;;;;0.60;0.60;;;;;16.50;98976.00;;;;5116489;28;20190;-69
2022/07/12 00:52:26;;;;;;;0.70;0.70;;;;;16.40;98970.00;;;;5116418;28;20197;-69
2022/07/12 00:54:53;;;;;;;0.70;0.70;;;;;16.40;98980.00;;;;5116309;28;20255;-69
2022/07/12 00:57:20;;;;;;;0.40;0.40;;;;;16.40;98974.00;;;;5116267;28;20300;-70
2022/07/12 00:59:48;;;;;;;0.80;0.80;;;;;16.60;98980.00;;;;5116265;28;20309;-69
2022/07/12 01:02:14;;;;;;;0.63;0.63;;;;;16.70;98975.00;;;;5116222;28;20201;-70
2022/07/12 01:04:45;;;;;;;1.17;1.17;;;;;16.70;98976.00;;;;5116040;28;20194;-69
2022/07/12 01:07:12;;;;;;;0.50;0.50;;;;;16.60;98978.00;;;;5116137;28;20205;-70
2022/07/12 01:09:40;;;;;;;0.80;0.80;;;;;16.60;98980.00;;;;5116012;28;20190;-69
2022/07/12 01:12:07;;;;;;;0.67;0.67;;;;;16.60;98975.00;;;;5115982;28;20214;-69
2022/07/12 01:14:35;;;;;;;1.00;1.00;;;;;16.60;98975.00;;;;5115997;28;20572;-69
2022/07/12 01:17:03;;;;;;;1.07;1.07;;;;;16.60;98978.00;;;;5115861;28;20578;-69
2022/07/12 01:19:31;;;;;;;0.40;0.40;;;;;16.50;98977.00;;;;5115797;28;20233;-69
2022/07/12 01:22:01;;;;;;;0.50;0.50;;;;;16.60;98978.00;;;;5115820;28;20194;-69
2022/07/12 01:24:28;;;;;;;0.90;0.90;;;;;16.60;98978.00;;;;5115966;28;20186;-69
2022/07/12 01:26:55;;;;;;;0.47;0.47;;;;;16.70;98974.00;;;;5115693;28;20222;-69
2022/07/12 01:29:22;;;;;;;0.63;0.63;;;;;16.60;98982.00;;;;5115682;28;20186;-69
2022/07/12 01:31:49;;;;;;;1.17;1.07;;;;;16.50;98971.00;;;;5115694;28;20210;-69
2022/07/12 01:34:16;;;;;;;0.97;0.97;;;;;16.50;98971.00;;;;5097665;28;20222;-69
2022/07/12 01:36:43;;;;;;;0.50;0.50;;;;;16.40;98974.00;;;;5115579;28;20212;-69
2022/07/12 01:39:11;;;;;;;0.53;0.53;;;;;16.40;98976.00;;;;5115521;28;20230;-69
2022/07/12 01:41:40;;;;;;;0.50;0.50;;;;;16.40;98968.00;;;;5097605;28;20214;-69
2022/07/12 01:44:07;;;;;;;0.60;0.60;;;;;16.50;98968.00;;;;5097836;28;20535;-69
2022/07/12 01:46:38;;;;;;;1.13;1.13;;;;;16.50;98971.00;;;;5115496;28;20190;-69
2022/07/12 01:49:05;;;;;;;1.00;1.00;;;;;16.40;98968.00;;;;5114089;28;20311;-72
2022/07/12 01:51:32;;;;;;;0.50;0.50;;;;;16.40;98973.00;;;;5115413;28;20190;-71
2022/07/12 01:54:02;;;;;;;0.60;0.60;;;;;16.40;98966.00;;;;5115471;28;20198;-69
2022/07/12 01:56:29;;;;;;;0.60;0.60;;;;;16.50;98962.00;;;;5115333;28;20190;-69
2022/07/12 01:58:57;;;;;;;0.63;0.63;;;;;16.30;98954.00;;;;5115265;28;20226;-69
2022/07/12 02:01:24;;;;;;;0.60;0.60;;;;;16.30;98965.00;;;;5115234;28;20250;-69
2022/07/12 02:03:51;;;;;;;0.73;0.73;;;;;16.20;98971.00;;;;5115241;28;20190;-69
2022/07/12 02:06:18;;;;;;;0.70;0.70;;;;;16.10;98976.00;;;;5115130;28;20194;-69
2022/07/12 02:08:47;;;;;;;0.70;0.70;;;;;16.20;98974.00;;;;5115054;28;20209;-69
2022/07/12 02:11:14;;;;;;;0.93;0.93;;;;;16.10;98973.00;;;;5115092;28;20194;-69
2022/07/12 02:13:43;;;;;;;0.97;0.97;;;;;16.10;98970.00;;;;5115083;28;20201;-69
2022/07/12 02:16:10;;;;;;;0.87;0.87;;;;;16.10;98971.00;;;;5114910;28;20210;-69
2022/07/12 02:18:37;;;;;;;0.80;0.80;;;;;16.00;98969.00;;;;5114955;28;20218;-69
2022/07/12 02:21:06;;;;;;;0.70;0.70;;;;;15.90;98964.00;;;;5114865;28;20213;-69
2022/07/12 02:23:33;;;;;;;0.93;0.80;;;;;15.90;98971.00;;;;5114916;28;20216;-69
2022/07/12 02:26:00;;;;;;;0.70;0.70;;;;;16.00;98966.00;;;;5114905;28;20241;-69
2022/07/12 02:28:27;;;;;;;0.90;0.90;;;;;15.90;98956.00;;;;5114830;28;20198;-69
2022/07/12 02:30:54;;;;;;;0.60;0.60;;;;;15.80;98960.00;;;;5114713;28;20296;-69
2022/07/12 02:33:21;;;;;;;1.10;1.10;;;;;15.60;98965.00;;;;5114769;28;20194;-69
2022/07/12 02:35:50;;;;;;;0.80;0.80;;;;;15.60;98961.00;;;;5114696;28;20539;-68
2022/07/12 02:38:21;;;;;;;0.87;0.70;;;;;15.70;98961.00;;;;5114542;28;20229;-69
2022/07/12 02:40:53;;;;;;;0.40;0.40;;;;;15.60;98959.00;;;;5114668;28;20637;-69
2022/07/12 02:43:23;;;;;;;1.40;1.30;;;;;15.50;98962.00;;;;5114600;28;20292;-69
2022/07/12 02:45:53;;;;;;;0.60;0.60;;;;;15.50;98961.00;;;;5114550;28;20225;-69
2022/07/12 02:48:21;;;;;;;1.10;1.10;;;;;15.50;98960.00;;;;5114462;28;20194;-69
2022/07/12 02:50:48;;;;;;;0.77;0.77;;;;;15.50;98960.00;;;;5096519;28;20202;-69
2022/07/12 02:53:16;;;;;;;1.00;1.00;;;;;15.40;98958.00;;;;5096417;28;20226;-68
2022/07/12 02:55:42;;;;;;;0.70;0.70;;;;;15.40;98956.00;;;;5114353;28;20259;-69
2022/07/12 02:58:11;;;;;;;0.60;0.60;;;;;15.40;98951.00;;;;5114295;28;20216;-68
2022/07/12 03:00:38;;;;;;;0.60;0.60;;;;;15.30;98959.00;;;;5113858;28;20221;-69
2022/07/12 03:03:07;;;;;;;0.70;0.70;;;;;15.30;98959.00;;;;5114231;28;20183;-69
2022/07/12 03:05:35;;;;;;;0.40;0.40;;;;;15.30;98958.00;;;;5114232;28;20200;-69
2022/07/12 03:08:02;;;;;;;0.87;0.87;;;;;15.20;98959.00;;;;5114262;28;20661;-69
2022/07/12 03:10:29;;;;;;;0.63;0.63;;;;;15.10;98968.00;;;;5114300;28;20255;-69
2022/07/12 03:12:56;;;;;;;0.47;0.47;;;;;15.20;98971.00;;;;5096421;28;20656;-69
2022/07/12 03:15:22;;;;;;;0.50;0.50;;;;;15.10;98977.00;;;;5114225;28;20225;-69
2022/07/12 03:17:49;;;;;;;0.83;0.83;;;;;15.00;98970.00;;;;5114017;28;20228;-69
2022/07/12 03:20:16;;;;;;;0.70;0.70;;;;;15.00;98971.00;;;;5114068;28;20186;-69
2022/07/12 03:22:46;;;;;;;0.87;0.87;;;;;15.00;98975.00;;;;5114001;28;20197;-69
2022/07/12 03:25:13;;;;;;;0.80;0.80;;;;;15.10;98974.00;;;;5096319;28;20329;-69
2022/07/12 03:27:39;;;;;;;0.80;0.80;;;;;15.10;98981.00;;;;5113886;28;20190;-69
2022/07/12 03:30:08;;;;;;;0.80;0.80;;;;;15.10;98986.00;;;;5113999;28;20189;-69
2022/07/12 03:32:35;;;;;;;0.63;0.63;;;;;15.10;98977.00;;;;5113938;28;20194;-69
2022/07/12 03:35:02;;;;;;;0.60;0.60;;;;;15.20;98984.00;;;;5113827;28;20251;-69
2022/07/12 03:37:41;;;;;;;0.63;0.63;;;;;15.10;98998.00;;;;5095867;28;20217;-69
2022/07/12 03:40:12;;;;;;;0.60;0.60;;;;;15.10;98995.00;;;;5096014;28;20691;-69
2022/07/12 03:42:39;;;;;;;0.67;0.67;;;;;15.00;98992.00;;;;5113768;28;20300;-69
2022/07/12 03:45:07;;;;;;;0.80;0.80;;;;;15.10;98992.00;;;;5095860;28;20501;-69
2022/07/12 03:47:37;;;;;;;0.60;0.60;;;;;15.00;99006.00;;;;5095742;28;20638;-69
2022/07/12 03:50:04;;;;;;;0.60;0.60;;;;;15.00;98998.00;;;;5113607;28;20606;-69
2022/07/12 03:52:32;;;;;;;0.60;0.60;;;;;14.90;99000.00;;;;5113649;28;20638;-69
2022/07/12 03:54:58;;;;;;;0.60;0.60;;;;;15.00;98998.00;;;;5113724;28;20327;-69
2022/07/12 03:57:26;;;;;;;3.13;1.10;;;;;15.00;99006.00;;;;5113581;28;20392;-68
2022/07/12 03:59:53;;;;;;;0.63;0.63;;;;;15.00;99015.00;;;;5113587;28;20266;-69
2022/07/12 04:02:20;;;;;;;0.60;0.60;;;;;15.10;99016.00;;;;5113533;28;20186;-69
2022/07/12 04:04:47;;;;;;;1.07;1.07;;;;;15.00;99022.00;;;;5113458;28;20218;-69
2022/07/12 04:07:14;;;;;;;0.70;0.70;;;;;15.00;99017.00;;;;5098119;28;20202;-69
2022/07/12 04:09:43;;;;;;;0.50;0.50;;;;;14.90;99022.00;;;;5095501;28;20214;-69
2022/07/12 04:12:10;;;;;;;1.20;1.17;;;;;14.90;99028.00;;;;5113937;28;20657;-69
2022/07/12 04:14:38;;;;;;;0.80;0.80;;;;;14.80;99025.00;;;;5116983;28;20198;-68
2022/07/12 04:17:06;;;;;;;0.90;0.90;;;;;14.80;99034.00;;;;5116787;28;20206;-69
2022/07/12 04:19:36;;;;;;;0.80;0.80;;;;;14.80;99029.00;;;;5116882;28;20266;-69
2022/07/12 04:22:03;;;;;;;0.60;0.60;;;;;14.90;99021.00;;;;5098886;28;20272;-69
2022/07/12 04:24:30;;;;;;;2.40;1.17;;;;;14.90;99010.00;;;;5116812;28;20190;-69
2022/07/12 04:26:57;;;;;;;0.70;0.70;;;;;14.90;99013.00;;;;5116906;28;20235;-69
2022/07/12 04:29:24;;;;;;;0.93;0.93;;;;;15.00;99017.00;;;;5098910;28;20347;-69
2022/07/12 04:31:53;;;;;;;0.60;0.60;;;;;14.90;99020.00;;;;5116772;28;20208;-68
2022/07/12 04:34:20;;;;;;;0.90;0.90;;;;;15.00;99023.00;;;;5116720;28;20198;-69
2022/07/12 04:36:48;;;;;;;1.07;0.87;;;;;15.10;99022.00;;;;5116601;28;20232;-69
2022/07/12 04:39:15;;;;;;;0.70;0.70;;;;;15.10;99023.00;;;;5116336;28;20299;-70
2022/07/12 04:41:44;;;;;;;0.67;0.67;;;;;15.10;99010.00;;;;5116585;28;20231;-69
2022/07/12 04:44:11;;;;;;;0.60;0.60;;;;;15.00;99009.00;;;;5116566;28;20208;-69
2022/07/12 04:46:38;;;;;;;0.70;0.70;;;;;15.10;99010.00;;;;5116473;28;20218;-70
2022/07/12 04:49:08;;;;;;;0.50;0.50;;;;;15.10;99007.00;;;;5116622;28;20258;-69
2022/07/12 04:51:35;;;;;;;0.60;0.60;;;;;15.00;99006.00;;;;5116514;28;20204;-69
2022/07/12 04:54:03;;;;;;;0.80;0.80;;;;;15.00;99013.00;;;;5098398;28;20226;-69
2022/07/12 04:56:30;;;;;;;1.00;1.00;;;;;15.00;99014.00;;;;5116320;28;20201;-69
2022/07/12 04:58:57;;;;;;;0.60;0.60;;;;;15.00;99018.00;;;;5116302;28;20316;-69
2022/07/12 05:01:24;;;;;;;0.60;0.60;;;;;15.00;99016.00;;;;5116138;28;20236;-69
2022/07/12 05:03:51;;;;;;;0.93;0.93;;;;;15.10;99022.00;;;;5116176;28;20212;-69
2022/07/12 05:06:18;;;;;;;0.63;0.63;;;;;15.10;99020.00;;;;5116185;28;20189;-69
2022/07/12 05:08:45;;;;;;;0.60;0.60;;;;;15.20;99024.00;;;;5116245;28;20249;-69
2022/07/12 05:11:12;;;;;;;0.60;0.60;;;;;15.20;99025.00;;;;5115982;28;20228;-69
2022/07/12 05:13:38;;;;;;;1.43;1.33;;;;;15.10;99028.00;;;;5115892;28;20190;-69
2022/07/12 05:16:08;;;;;;;0.90;0.90;;;;;15.20;99020.00;;;;5115755;28;20730;-69
2022/07/12 05:18:35;;;;;;;0.60;0.60;;;;;15.40;99032.00;;;;5115897;28;20222;-69
2022/07/12 05:21:04;;;;;;;0.60;0.60;;;;;15.40;99031.00;;;;5115864;28;20247;-69
2022/07/12 05:23:32;;;;;;;0.87;0.87;;;;;15.40;99034.00;;;;5115578;28;20304;-69
2022/07/12 05:26:02;;;;;;;0.70;0.70;;;;;15.50;99042.00;;;;5115875;28;20194;-69
2022/07/12 05:28:29;;;;;;;0.80;0.80;;;;;15.60;99033.00;;;;5115742;28;20544;-69
2022/07/12 05:30:55;;;;;;;0.80;0.80;;;;;15.60;99029.00;;;;5115643;28;20226;-69
2022/07/12 05:33:22;;;;;;;0.60;0.60;;;;;15.70;99024.00;;;;5115575;28;20577;-69
2022/07/12 05:35:52;;;;;;;1.30;1.30;;;;;15.80;99033.00;;;;5115644;28;20217;-69
2022/07/12 05:38:19;;;;;;;0.97;0.97;;;;;15.90;99035.00;;;;5097682;28;20611;-69
2022/07/12 05:40:46;;;;;;;0.80;0.80;;;;;16.00;99034.00;;;;5115614;28;20200;-69
2022/07/12 05:43:15;;;;;;;0.97;0.97;;;;;16.10;99042.00;;;;5115556;28;20262;-69
2022/07/12 05:45:42;;;;;;;0.77;0.77;;;;;16.10;99040.00;;;;5097489;28;20302;-69
2022/07/12 05:48:12;;;;;;;1.27;1.17;;;;;16.20;99050.00;;;;5097682;28;20531;-70
2022/07/12 05:50:41;;;;;;;0.90;0.90;;;;;16.30;99060.00;;;;5115455;28;20190;-70
2022/07/12 05:53:22;;;;;;;1.13;1.13;;;;;16.40;99054.00;;;;5115536;28;20205;-70
2022/07/12 05:55:50;;;;;;;0.93;0.70;;;;;16.60;99050.00;;;;5115334;28;20194;-70
2022/07/12 05:58:17;;;;;;;0.60;0.60;;;;;16.60;99063.00;;;;5115142;28;20669;-70
2022/07/12 06:00:44;;;;;;;0.47;0.47;;;;;16.70;99059.00;;;;5115729;28;20198;-70
2022/07/12 06:03:11;;;;;;;0.73;0.73;;;;;16.80;99057.00;;;;5115428;28;20198;-68
2022/07/12 06:05:38;;;;;;;0.57;0.57;;;;;16.90;99063.00;;;;5116586;28;20637;-70
2022/07/12 06:08:06;;;;;;;0.50;0.50;;;;;16.90;99068.00;;;;5097434;28;20289;-69
2022/07/12 06:10:33;;;;;;;0.60;0.60;;;;;17.00;99057.00;;;;5115076;28;20247;-69
2022/07/12 06:13:01;;;;;;;20.27;1.60;;;;;17.10;99063.00;;;;5115094;28;20221;-70
2022/07/12 06:15:28;;;;;;;0.70;0.70;;;;;17.20;99060.00;;;;5115081;28;20279;-69
2022/07/12 06:17:55;;;;;;;0.90;0.90;;;;;17.20;99061.00;;;;5114814;28;20551;-69
2022/07/12 06:20:21;;;;;;;1.20;1.10;;;;;17.30;99065.00;;;;5114949;28;20228;-70
2022/07/12 06:22:48;;;;;;;0.57;0.57;;;;;17.40;99076.00;;;;5114997;28;20221;-73
2022/07/12 06:25:18;;;;;;;0.53;0.53;;;;;17.50;99077.00;;;;5114835;28;20189;-71
2022/07/12 06:27:47;;;;;;;0.67;0.67;;;;;17.50;99079.00;;;;5115033;28;20277;-72
2022/07/12 06:30:16;;;;;;;0.37;0.37;;;;;17.70;99080.00;;;;5096766;28;20656;-71
2022/07/12 06:32:44;;;;;;;0.60;0.60;;;;;17.70;99079.00;;;;5114820;28;20387;-71
2022/07/12 06:35:11;;;;;;;0.90;0.90;;;;;17.90;99083.00;;;;5114147;28;20186;-71
2022/07/12 06:37:40;;;;;;;0.60;0.60;;;;;17.90;99070.00;;;;5114687;28;20652;-71
2022/07/12 06:40:08;;;;;;;0.40;0.40;;;;;17.90;99077.00;;;;5114620;28;20278;-71
2022/07/12 06:42:35;;;;;;;0.83;0.83;;;;;18.10;99077.00;;;;5114748;28;20209;-71
2022/07/12 06:45:02;;;;;;;0.43;0.43;;;;;18.10;99080.00;;;;5114829;28;20235;-71
2022/07/12 06:47:29;;;;;;;0.77;0.77;;;;;18.20;99077.00;;;;5114611;28;20642;-70
2022/07/12 06:49:56;;;;;;;0.40;0.40;;;;;18.20;99083.00;;;;5114519;28;20522;-68
2022/07/12 06:52:23;;;;;;;0.50;0.50;;;;;18.30;99079.00;;;;5114474;28;20556;-72
2022/07/12 06:54:50;;;;;;;0.43;0.43;;;;;18.40;99086.00;;;;5114436;28;20280;-72
2022/07/12 06:57:20;;;;;;;0.60;0.60;;;;;18.50;99082.00;;;;5114349;28;20641;-72
2022/07/12 06:59:49;;;;;;;0.47;0.47;;;;;18.50;99082.00;;;;5114471;28;20198;-71
2022/07/12 07:02:15;;;;;;;0.60;0.60;;;;;18.60;99087.00;;;;5096542;28;20194;-71
2022/07/12 07:04:43;;;;;;;0.50;0.50;;;;;18.70;99086.00;;;;5114443;28;20330;-72
2022/07/12 07:07:10;;;;;;;0.40;0.40;;;;;18.80;99095.00;;;;5114278;28;20226;-71
2022/07/12 07:09:39;;;;;;;0.50;0.50;;;;;18.80;99102.00;;;;5114440;28;20201;-71
2022/07/12 07:12:06;;;;;;;0.50;0.50;;;;;18.80;99100.00;;;;5114211;28;20273;-71
2022/07/12 07:14:33;;;;;;;0.53;0.53;;;;;19.00;99106.00;;;;5114172;28;20194;-71
2022/07/12 07:17:00;;;;;;;0.40;0.40;;;;;19.10;99106.00;;;;5114141;28;20240;-71
2022/07/12 07:19:27;;;;;;;0.50;0.50;;;;;19.20;99111.00;;;;5114323;28;20313;-71
2022/07/12 07:21:54;;;;;;;0.50;0.50;;;;;19.20;99111.00;;;;5114182;28;20194;-71
2022/07/12 07:24:22;;;;;;;1.60;1.50;;;;;19.30;99111.00;;;;5096150;28;20261;-71
2022/07/12 07:26:49;;;;;;;0.50;0.50;;;;;19.40;99116.00;;;;5114089;28;20624;-71
2022/07/12 07:32:01;;;;;;;0.50;0.50;;;;;19.60;99118.00;;;;5114024;28;20276;-71
2022/07/12 07:34:28;;;;;;;0.40;0.40;;;;;19.80;99107.00;;;;5113950;28;20186;-70
2022/07/12 07:36:55;;;;;;;0.50;0.50;;;;;19.80;99115.00;;;;5113873;28;20186;-71
2022/07/12 07:39:22;;;;;;;0.50;0.50;;;;;20.00;99116.00;;;;5113817;28;20311;-73
2022/07/12 07:41:49;;;;;;;0.73;0.73;;;;;20.20;99111.00;;;;5116734;28;20202;-71
2022/07/12 07:44:16;;;;;;;0.50;0.50;;;;;20.40;99114.00;;;;5114315;28;20208;-70
2022/07/12 07:46:43;;;;;;;0.60;0.60;;;;;20.40;99109.00;;;;5115629;28;20224;-72
2022/07/12 07:49:10;;;;;;;0.57;0.57;;;;;20.50;99113.00;;;;5117590;28;20194;-72
2022/07/12 07:51:36;;;;;;;0.40;0.40;;;;;20.50;99115.00;;;;5099965;28;20532;-72
2022/07/12 07:54:04;;;;;;;0.60;0.60;;;;;20.50;99122.00;;;;5117378;28;20258;-71
2022/07/12 07:56:33;;;;;;;0.50;0.50;;;;;20.50;99121.00;;;;5117330;28;20572;-71
2022/07/12 07:59:02;;;;;;;0.60;0.60;;;;;20.60;99124.00;;;;5117138;28;20228;-71
2022/07/12 08:01:52;;;;;;;0.70;0.70;;;;;20.50;99119.00;;;;5117241;28;20221;-72
2022/07/12 08:04:20;;;;;;;0.57;0.57;;;;;20.60;99111.00;;;;5117340;28;20196;-71
2022/07/12 08:06:48;;;;;;;0.77;0.77;;;;;20.70;99118.00;;;;5116842;28;20210;-71
2022/07/12 08:09:16;;;;;;;0.50;0.50;;;;;20.80;99111.00;;;;5117128;28;20237;-72
2022/07/12 08:11:46;;;;;;;0.80;0.80;;;;;20.90;99109.00;;;;5117138;28;20213;-71
2022/07/12 08:14:13;;;;;;;0.60;0.60;;;;;21.00;99112.00;;;;5117039;28;20256;-70
2022/07/12 08:16:40;;;;;;;0.47;0.47;;;;;21.20;99105.00;;;;5116924;28;20213;-69
2022/07/12 08:19:07;;;;;;;0.43;0.43;;;;;21.00;99105.00;;;;5116832;28;20774;-71
2022/07/12 08:21:36;;;;;;;0.40;0.40;;;;;21.00;99102.00;;;;5116917;28;20198;-71
2022/07/12 08:24:03;;;;;;;0.60;0.60;;;;;21.10;99109.00;;;;5116827;28;20206;-71
2022/07/12 08:26:30;;;;;;;0.43;0.43;;;;;21.20;99106.00;;;;5116770;28;20330;-72
2022/07/12 08:29:00;;;;;;;0.60;0.60;;;;;21.20;99113.00;;;;5116848;28;20194;-71
2022/07/12 08:31:26;;;;;;;0.50;0.50;;;;;21.20;99102.00;;;;5116757;28;20198;-71
2022/07/12 08:33:53;;;;;;;0.40;0.40;;;;;21.30;99106.00;;;;5116676;28;20198;-71
2022/07/12 08:36:20;;;;;;;0.40;0.40;;;;;21.40;99105.00;;;;5116765;28;20692;-71
2022/07/12 08:38:47;;;;;;;0.50;0.50;;;;;21.50;99104.00;;;;5116580;28;20221;-73
2022/07/12 08:41:14;;;;;;;0.50;0.50;;;;;21.70;99115.00;;;;5116705;28;20213;-73
2022/07/12 08:43:42;;;;;;;0.50;0.50;;;;;21.70;99117.00;;;;5116494;28;20300;-72
2022/07/12 08:46:13;;;;;;;0.60;0.60;;;;;21.70;99114.00;;;;5116597;28;20208;-71
2022/07/12 08:48:41;;;;;;;0.60;0.60;;;;;21.80;99111.00;;;;5116528;28;20197;-72
2022/07/12 08:51:09;;;;;;;0.55;0.55;;;;;22.00;99104.00;;;;5116436;28;20661;-72
2022/07/12 08:53:39;;;;;;;0.60;0.60;;;;;22.10;99116.00;;;;5116215;28;20249;-72
2022/07/12 08:56:07;;;;;;;0.45;0.45;;;;;22.20;99124.00;;;;5116338;28;20251;-72
2022/07/12 08:58:34;;;;;;;0.80;0.80;;;;;22.20;99129.00;;;;5115654;28;20221;-75
2022/07/12 09:01:02;;;;;;;0.40;0.40;;;;;22.20;99135.00;;;;5116364;28;20190;-71
2022/07/12 09:03:28;;;;;;;0.50;0.50;;;;;22.40;99131.00;;;;5116181;28;20194;-73
2022/07/12 09:05:56;;;;;;;0.70;0.70;;;;;22.40;99124.00;;;;5116100;28;20190;-73
2022/07/12 09:08:28;;;;;;;0.35;0.35;;;;;22.80;99132.00;;;;5116059;28;20293;-70
2022/07/12 09:10:59;;;;;;;0.50;0.50;;;;;22.90;99129.00;;;;5115969;28;20216;-71
2022/07/12 09:13:51;;;;;;;0.30;0.30;;;;;23.20;99131.00;;;;5116149;28;20190;-71
2022/07/12 09:16:23;;;;;;;0.57;0.57;;;;;23.40;99128.00;;;;5116094;28;20190;-72
2022/07/12 09:19:13;;;;;;;0.50;0.50;;;;;23.70;99129.00;;;;5115932;28;20225;-72
2022/07/12 09:21:49;;;;;;;0.50;0.50;;;;;23.80;99130.00;;;;5115932;28;20236;-72
2022/07/12 09:24:16;;;;;;;0.50;0.50;;;;;23.80;99131.00;;;;5115885;28;20337;-73
2022/07/12 09:26:43;;;;;;;0.50;0.50;;;;;23.90;99134.00;;;;5116012;28;20330;-72
2022/07/12 09:29:11;;;;;;;0.40;0.40;;;;;23.70;99139.00;;;;5115867;28;20260;-72
2022/07/12 09:36:05;;;;;;;0.60;0.60;;;;;23.40;99137.00;;;;5115841;28;20198;-72
2022/07/12 09:37:13;;;;;;;0.50;0.50;;;;;23.00;99128.00;;;;5097848;28;20255;-71
2022/07/12 09:39:41;;;;;;;0.40;0.40;;;;;23.20;99129.00;;;;5115560;28;20275;-71
2022/07/12 09:42:10;;;;;;;0.70;0.70;;;;;23.40;99130.00;;;;5115582;28;20206;-72
2022/07/12 09:44:37;;;;;;;0.60;0.60;;;;;23.30;99126.00;;;;5115593;28;20186;-73
2022/07/12 09:47:07;;;;;;;0.50;0.50;;;;;23.30;99131.00;;;;5115585;28;20290;-73
2022/07/12 09:49:35;;;;;;;0.40;0.40;;;;;23.50;99126.00;;;;5115641;28;20201;-73
2022/07/12 09:52:04;;;;;;;0.60;0.60;;;;;23.70;99135.00;;;;5115503;28;20212;-74
2022/07/12 09:54:35;;;;;;;0.60;0.60;;;;;23.90;99130.00;;;;5115428;28;20214;-72
2022/07/12 09:57:04;;;;;;;0.40;0.40;;;;;24.00;99133.00;;;;5115469;28;20198;-72
2022/07/12 09:59:35;;;;;;;1.40;1.20;;;;;24.10;99137.00;;;;5115233;28;20214;-72
2022/07/12 10:02:05;;;;;;;0.63;0.63;;;;;24.00;99133.00;;;;5115514;28;20204;-71
2022/07/12 10:04:34;;;;;;;0.50;0.50;;;;;23.60;99130.00;;;;5115429;28;20251;-72
2022/07/12 10:07:03;;;;;;;0.50;0.50;;;;;23.60;99136.00;;;;5115243;28;20183;-71
2022/07/12 10:09:31;;;;;;;0.50;0.50;;;;;23.50;99139.00;;;;5114457;28;20222;-71
2022/07/12 10:11:58;;;;;;;0.70;0.70;;;;;23.70;99145.00;;;;5114801;28;20657;-72
2022/07/12 10:14:28;;;;;;;0.45;0.45;;;;;23.60;99139.00;;;;5115154;28;20277;-71
2022/07/12 10:16:56;;;;;;;0.40;0.40;;;;;23.30;99139.00;;;;5114976;28;20202;-71
2022/07/12 10:19:27;;;;;;;0.40;0.40;;;;;23.40;99140.00;;;;5114997;28;20213;-72
2022/07/12 10:21:56;;;;;;;0.50;0.50;;;;;23.40;99143.00;;;;5115067;28;20687;-70
2022/07/12 10:24:45;;;;;;;0.40;0.40;;;;;23.40;99139.00;;;;5114935;28;20202;-71
2022/07/12 10:27:37;;;;;;;0.40;0.40;;;;;23.80;99146.00;;;;5114943;28;20651;-72
2022/07/12 10:30:16;;;;;;;0.50;0.50;;;;;24.10;99145.00;;;;5091155;28;20340;-73
2022/07/12 10:32:45;;;;;;;0.40;0.40;;;;;24.40;99132.00;;;;5114922;28;20190;-73
2022/07/12 10:35:19;;;;;;;0.35;0.35;;;;;24.50;99134.00;;;;5114945;28;20213;-75
2022/07/12 10:38:16;;;;;;;0.60;0.60;;;;;24.40;99134.00;;;;5114927;28;20226;-73
2022/07/12 10:40:44;;;;;;;0.50;0.50;;;;;24.40;99132.00;;;;5114830;28;20202;-73
2022/07/12 10:43:16;;;;;;;0.50;0.50;;;;;24.20;99128.00;;;;5114719;28;20247;-73
2022/07/12 10:45:44;;;;;;;0.40;0.40;;;;;24.50;99128.00;;;;5096675;28;20194;-73
2022/07/12 10:48:21;;;;;;;0.50;0.50;;;;;24.70;99119.00;;;;5114491;28;20599;-71
2022/07/12 10:50:57;;;;;;;0.32;0.32;;;;;24.80;99116.00;;;;5114567;28;20189;-72
2022/07/12 10:53:30;;;;;;;0.50;0.50;;;;;25.00;99119.00;;;;5114614;28;20228;-71
2022/07/12 10:56:25;;;;;;;0.40;0.40;;;;;25.10;99111.00;;;;5114475;28;20301;-70
2022/07/12 10:58:54;;;;;;;0.60;0.60;;;;;25.20;99105.00;;;;5057046;28;20293;-71
2022/07/12 11:01:23;;;;;;;0.50;0.50;;;;;25.30;99113.00;;;;5096448;28;20650;-72
2022/07/12 11:03:54;;;;;;;0.40;0.40;;;;;25.30;99116.00;;;;5114391;28;20190;-71
2022/07/12 11:06:22;;;;;;;0.50;0.50;;;;;25.60;99111.00;;;;5114267;28;20637;-72
2022/07/12 11:08:55;;;;;;;0.50;0.50;;;;;25.50;99113.00;;;;5114265;28;20288;-72
2022/07/12 11:11:23;;;;;;;0.55;0.55;;;;;25.70;99122.00;;;;5114214;28;20221;-72
2022/07/12 11:13:50;;;;;;;0.40;0.40;;;;;25.70;99119.00;;;;5096476;28;20190;-72
2022/07/12 11:16:17;;;;;;;0.57;0.57;;;;;26.00;99115.00;;;;5114397;28;20200;-73
2022/07/12 11:18:44;;;;;;;0.47;0.47;;;;;26.30;99123.00;;;;5114145;28;20304;-73
2022/07/12 11:21:13;;;;;;;0.55;0.55;;;;;26.20;99113.00;;;;5096031;28;20210;-73
2022/07/12 11:23:42;;;;;;;0.50;0.50;;;;;26.20;99109.00;;;;5114149;28;20208;-73
2022/07/12 11:26:11;;;;;;;0.50;0.50;;;;;26.40;99112.00;;;;5096061;28;20194;-73
2022/07/12 11:28:39;;;;;;;0.45;0.45;;;;;26.50;99116.00;;;;5114117;28;20201;-72
2022/07/12 11:31:09;;;;;;;0.60;0.60;;;;;26.80;99115.00;;;;5114016;28;20228;-71
2022/07/12 11:33:37;;;;;;;0.50;0.50;;;;;26.70;99111.00;;;;5114061;28;20273;-73
2022/07/12 11:36:09;;;;;;;0.60;0.60;;;;;26.80;99112.00;;;;5113910;28;20216;-73
2022/07/12 11:38:37;;;;;;;0.40;0.40;;;;;27.00;99115.00;;;;5113942;28;20217;-72
2022/07/12 11:41:08;;;;;;;0.50;0.50;;;;;27.20;99118.00;;;;5095895;28;20197;-73
2022/07/12 11:43:37;;;;;;;0.50;0.50;;;;;27.40;99116.00;;;;5113922;28;20198;-71
2022/07/12 11:46:05;;;;;;;0.60;0.60;;;;;27.60;99099.00;;;;5113748;28;20569;-74
2022/07/12 11:48:35;;;;;;;0.50;0.50;;;;;27.50;99101.00;;;;5113742;28;20213;-75
2022/07/12 11:51:06;;;;;;;0.40;0.40;;;;;27.70;99105.00;;;;5113807;28;20205;-73
2022/07/12 11:53:37;;;;;;;0.60;0.60;;;;;27.70;99108.00;;;;5113789;28;20288;-74
2022/07/12 11:56:06;;;;;;;0.60;0.60;;;;;27.80;99102.00;;;;5113650;28;20210;-74
2022/07/12 11:58:37;;;;;;;0.43;0.43;;;;;28.00;99106.00;;;;5113558;28;20237;-73
2022/07/12 12:01:05;;;;;;;0.60;0.60;;;;;28.40;99108.00;;;;5113678;28;20232;-74
2022/07/12 12:03:43;;;;;;;0.60;0.60;;;;;28.70;99104.00;;;;5113592;28;20213;-74
2022/07/12 12:06:10;;;;;;;0.40;0.40;;;;;29.00;99097.00;;;;5095662;28;20190;-74
2022/07/12 12:08:37;;;;;;;0.50;0.50;;;;;29.10;99096.00;;;;5113561;28;20649;-72
2022/07/12 12:11:04;;;;;;;0.50;0.50;;;;;29.30;99097.00;;;;5113366;28;20226;-72
2022/07/12 12:13:33;;;;;;;6.13;1.08;;;;;29.50;99092.00;;;;5113512;28;20236;-73
2022/07/12 12:16:02;;;;;;;0.43;0.43;;;;;29.60;99093.00;;;;5113915;28;20675;-75
2022/07/12 12:18:31;;;;;;;0.60;0.60;;;;;29.50;99084.00;;;;5113783;28;20242;-73
2022/07/12 12:21:00;;;;;;;0.55;0.55;;;;;29.70;99078.00;;;;5116610;28;20301;-72
2022/07/12 12:23:27;;;;;;;0.50;0.50;;;;;29.50;99073.00;;;;5114680;28;20196;-74
2022/07/12 12:26:16;;;;;;;0.55;0.55;;;;;29.80;99070.00;;;;5113487;28;20214;-73
2022/07/12 12:28:45;;;;;;;0.50;0.50;;;;;30.10;99069.00;;;;5113253;28;20201;-72
2022/07/12 12:31:13;;;;;;;0.52;0.52;;;;;30.00;99067.00;;;;5113239;28;20206;-73